sensor_id;sensor_type;location;lat;lon;timestamp;P1;durP1;ratioP1;P2;durP2;ratioP2
5167;SDS011;2603;48.918;8.980;2023-05-10T00:01:12;1.00;;;0.50;;
5167;SDS011;2603;48.918;8.980;2023-05-10T00:03:38;1.27;;;0.40;;
5167;SDS011;2603;48.918;8.980;2023-05-10T00:06:06;2.40;;;0.40;;
5167;SDS011;2603;48.918;8.980;2023-05-10T00:08:32;1.00;;;0.40;;
5167;SDS011;2603;48.918;8.980;2023-05-10T00:10:59;1.20;;;0.50;;
5167;SDS011;2603;48.918;8.980;2023-05-10T00:13:26;1.00;;;0.40;;
5167;SDS011;2603;48.918;8.980;2023-05-10T00:15:54;1.10;;;0.50;;
5167;SDS011;2603;48.918;8.980;2023-05-10T00:18:21;5.50;;;0.70;;
5167;SDS011;2603;48.918;8.980;2023-05-10T00:20:48;1.00;;;0.47;;
5167;SDS011;2603;48.918;8.980;2023-05-10T00:23:15;1.00;;;0.40;;
5167;SDS011;2603;48.918;8.980;2023-05-10T00:25:41;5.07;;;0.50;;
5167;SDS011;2603;48.918;8.980;2023-05-10T00:28:08;1.07;;;0.43;;
5167;SDS011;2603;48.918;8.980;2023-05-10T00:30:36;1.10;;;0.50;;
5167;SDS011;2603;48.918;8.980;2023-05-10T00:33:04;3.10;;;0.63;;
5167;SDS011;2603;48.918;8.980;2023-05-10T00:35:30;1.20;;;0.57;;
5167;SDS011;2603;48.918;8.980;2023-05-10T00:37:57;1.40;;;0.60;;
5167;SDS011;2603;48.918;8.980;2023-05-10T00:40:24;1.30;;;0.70;;
5167;SDS011;2603;48.918;8.980;2023-05-10T00:42:55;1.60;;;0.60;;
5167;SDS011;2603;48.918;8.980;2023-05-10T00:45:21;1.20;;;0.67;;
5167;SDS011;2603;48.918;8.980;2023-05-10T00:47:48;1.30;;;0.57;;
5167;SDS011;2603;48.918;8.980;2023-05-10T00:50:17;1.20;;;0.50;;
5167;SDS011;2603;48.918;8.980;2023-05-10T00:52:44;1.20;;;0.60;;
5167;SDS011;2603;48.918;8.980;2023-05-10T00:55:10;1.20;;;0.60;;
5167;SDS011;2603;48.918;8.980;2023-05-10T00:57:38;1.00;;;0.50;;
5167;SDS011;2603;48.918;8.980;2023-05-10T01:00:06;1.13;;;0.60;;
5167;SDS011;2603;48.918;8.980;2023-05-10T01:02:34;1.40;;;0.70;;
5167;SDS011;2603;48.918;8.980;2023-05-10T01:05:01;3.30;;;0.80;;
5167;SDS011;2603;48.918;8.980;2023-05-10T01:07:31;1.30;;;0.80;;
5167;SDS011;2603;48.918;8.980;2023-05-10T01:09:58;3.23;;;0.90;;
5167;SDS011;2603;48.918;8.980;2023-05-10T01:12:25;1.50;;;0.77;;
5167;SDS011;2603;48.918;8.980;2023-05-10T01:14:51;4.70;;;0.70;;
5167;SDS011;2603;48.918;8.980;2023-05-10T01:17:18;1.60;;;0.80;;
5167;SDS011;2603;48.918;8.980;2023-05-10T01:19:45;2.43;;;0.93;;
5167;SDS011;2603;48.918;8.980;2023-05-10T01:22:17;1.20;;;0.70;;
5167;SDS011;2603;48.918;8.980;2023-05-10T01:28:08;1.77;;;1.00;;
5167;SDS011;2603;48.918;8.980;2023-05-10T01:33:52;1.53;;;1.00;;
5167;SDS011;2603;48.918;8.980;2023-05-10T01:36:23;1.80;;;1.00;;
5167;SDS011;2603;48.918;8.980;2023-05-10T01:38:56;1.50;;;1.00;;
5167;SDS011;2603;48.918;8.980;2023-05-10T01:41:28;1.20;;;0.70;;
5167;SDS011;2603;48.918;8.980;2023-05-10T01:44:00;1.37;;;0.83;;
5167;SDS011;2603;48.918;8.980;2023-05-10T01:46:31;1.57;;;0.80;;
5167;SDS011;2603;48.918;8.980;2023-05-10T01:49:03;1.53;;;0.87;;
5167;SDS011;2603;48.918;8.980;2023-05-10T01:51:36;3.37;;;0.80;;
5167;SDS011;2603;48.918;8.980;2023-05-10T01:54:05;1.57;;;0.87;;
5167;SDS011;2603;48.918;8.980;2023-05-10T01:56:35;1.67;;;0.77;;
5167;SDS011;2603;48.918;8.980;2023-05-10T01:59:02;9.23;;;1.20;;
5167;SDS011;2603;48.918;8.980;2023-05-10T02:01:35;1.70;;;0.90;;
5167;SDS011;2603;48.918;8.980;2023-05-10T02:04:04;1.40;;;0.70;;
5167;SDS011;2603;48.918;8.980;2023-05-10T02:06:31;4.10;;;0.97;;
5167;SDS011;2603;48.918;8.980;2023-05-10T02:08:58;8.73;;;0.80;;
5167;SDS011;2603;48.918;8.980;2023-05-10T02:11:26;1.97;;;1.10;;
5167;SDS011;2603;48.918;8.980;2023-05-10T02:13:53;4.13;;;0.77;;
5167;SDS011;2603;48.918;8.980;2023-05-10T02:16:26;1.40;;;0.90;;
5167;SDS011;2603;48.918;8.980;2023-05-10T02:18:55;1.77;;;0.97;;
5167;SDS011;2603;48.918;8.980;2023-05-10T02:21:24;2.13;;;1.00;;
5167;SDS011;2603;48.918;8.980;2023-05-10T02:23:52;1.60;;;1.00;;
5167;SDS011;2603;48.918;8.980;2023-05-10T02:26:20;1.43;;;0.83;;
5167;SDS011;2603;48.918;8.980;2023-05-10T02:28:47;2.40;;;1.10;;
5167;SDS011;2603;48.918;8.980;2023-05-10T02:31:15;1.70;;;1.00;;
5167;SDS011;2603;48.918;8.980;2023-05-10T02:33:42;2.00;;;1.10;;
5167;SDS011;2603;48.918;8.980;2023-05-10T02:36:09;1.60;;;0.80;;
5167;SDS011;2603;48.918;8.980;2023-05-10T02:38:37;1.80;;;0.93;;
5167;SDS011;2603;48.918;8.980;2023-05-10T02:41:05;1.70;;;1.10;;
5167;SDS011;2603;48.918;8.980;2023-05-10T02:43:32;3.53;;;1.10;;
5167;SDS011;2603;48.918;8.980;2023-05-10T02:46:00;1.87;;;1.10;;
5167;SDS011;2603;48.918;8.980;2023-05-10T02:48:27;1.80;;;1.10;;
5167;SDS011;2603;48.918;8.980;2023-05-10T02:50:54;2.60;;;1.20;;
5167;SDS011;2603;48.918;8.980;2023-05-10T02:53:22;2.47;;;1.17;;
5167;SDS011;2603;48.918;8.980;2023-05-10T02:55:54;1.87;;;0.90;;
5167;SDS011;2603;48.918;8.980;2023-05-10T02:58:25;2.50;;;1.07;;
5167;SDS011;2603;48.918;8.980;2023-05-10T03:00:54;1.60;;;1.00;;
5167;SDS011;2603;48.918;8.980;2023-05-10T03:03:20;4.40;;;1.20;;
5167;SDS011;2603;48.918;8.980;2023-05-10T03:05:49;2.90;;;1.57;;
5167;SDS011;2603;48.918;8.980;2023-05-10T03:08:18;2.10;;;1.33;;
5167;SDS011;2603;48.918;8.980;2023-05-10T03:10:50;2.40;;;1.60;;
5167;SDS011;2603;48.918;8.980;2023-05-10T03:13:36;2.67;;;1.47;;
5167;SDS011;2603;48.918;8.980;2023-05-10T03:16:07;6.83;;;2.03;;
5167;SDS011;2603;48.918;8.980;2023-05-10T03:18:37;1.93;;;1.33;;
5167;SDS011;2603;48.918;8.980;2023-05-10T03:21:09;3.43;;;1.80;;
5167;SDS011;2603;48.918;8.980;2023-05-10T03:23:41;2.53;;;1.73;;
5167;SDS011;2603;48.918;8.980;2023-05-10T03:26:12;4.10;;;1.67;;
5167;SDS011;2603;48.918;8.980;2023-05-10T03:28:43;2.50;;;1.60;;
5167;SDS011;2603;48.918;8.980;2023-05-10T03:31:11;2.73;;;1.80;;
5167;SDS011;2603;48.918;8.980;2023-05-10T03:33:45;3.87;;;1.97;;
5167;SDS011;2603;48.918;8.980;2023-05-10T03:36:13;2.57;;;1.53;;
5167;SDS011;2603;48.918;8.980;2023-05-10T03:38:39;2.63;;;1.80;;
5167;SDS011;2603;48.918;8.980;2023-05-10T03:41:06;3.20;;;1.93;;
5167;SDS011;2603;48.918;8.980;2023-05-10T03:43:34;2.77;;;1.90;;
5167;SDS011;2603;48.918;8.980;2023-05-10T03:46:01;2.50;;;1.63;;
5167;SDS011;2603;48.918;8.980;2023-05-10T03:48:28;2.30;;;1.40;;
5167;SDS011;2603;48.918;8.980;2023-05-10T03:50:55;2.03;;;1.40;;
5167;SDS011;2603;48.918;8.980;2023-05-10T03:53:21;4.33;;;1.50;;
5167;SDS011;2603;48.918;8.980;2023-05-10T03:55:49;3.90;;;1.90;;
5167;SDS011;2603;48.918;8.980;2023-05-10T03:58:16;2.10;;;1.60;;
5167;SDS011;2603;48.918;8.980;2023-05-10T04:00:44;1.83;;;1.10;;
5167;SDS011;2603;48.918;8.980;2023-05-10T04:03:13;1.80;;;1.20;;
5167;SDS011;2603;48.918;8.980;2023-05-10T04:05:40;3.43;;;1.07;;
5167;SDS011;2603;48.918;8.980;2023-05-10T04:08:07;6.03;;;1.50;;
5167;SDS011;2603;48.918;8.980;2023-05-10T04:10:34;4.80;;;1.50;;
5167;SDS011;2603;48.918;8.980;2023-05-10T04:13:00;1.73;;;1.20;;
5167;SDS011;2603;48.918;8.980;2023-05-10T04:15:27;1.93;;;1.30;;
5167;SDS011;2603;48.918;8.980;2023-05-10T04:17:55;4.63;;;1.40;;
5167;SDS011;2603;48.918;8.980;2023-05-10T04:20:22;2.30;;;1.57;;
5167;SDS011;2603;48.918;8.980;2023-05-10T04:22:48;7.13;;;1.50;;
5167;SDS011;2603;48.918;8.980;2023-05-10T04:25:15;2.00;;;1.07;;
5167;SDS011;2603;48.918;8.980;2023-05-10T04:27:42;2.00;;;1.20;;
5167;SDS011;2603;48.918;8.980;2023-05-10T04:30:09;2.67;;;1.53;;
5167;SDS011;2603;48.918;8.980;2023-05-10T04:32:36;2.57;;;1.23;;
5167;SDS011;2603;48.918;8.980;2023-05-10T04:35:04;1.57;;;1.07;;
5167;SDS011;2603;48.918;8.980;2023-05-10T04:37:31;4.30;;;1.73;;
5167;SDS011;2603;48.918;8.980;2023-05-10T04:39:57;3.93;;;1.50;;
5167;SDS011;2603;48.918;8.980;2023-05-10T04:42:25;2.77;;;1.70;;
5167;SDS011;2603;48.918;8.980;2023-05-10T04:44:51;1.97;;;1.10;;
5167;SDS011;2603;48.918;8.980;2023-05-10T04:47:18;4.30;;;2.40;;
5167;SDS011;2603;48.918;8.980;2023-05-10T04:49:44;2.00;;;1.40;;
5167;SDS011;2603;48.918;8.980;2023-05-10T04:52:12;2.33;;;1.53;;
5167;SDS011;2603;48.918;8.980;2023-05-10T04:54:40;2.43;;;1.47;;
5167;SDS011;2603;48.918;8.980;2023-05-10T04:57:06;3.20;;;1.90;;
5167;SDS011;2603;48.918;8.980;2023-05-10T04:59:33;3.90;;;2.20;;
5167;SDS011;2603;48.918;8.980;2023-05-10T05:02:01;2.43;;;1.83;;
5167;SDS011;2603;48.918;8.980;2023-05-10T05:04:29;2.73;;;1.93;;
5167;SDS011;2603;48.918;8.980;2023-05-10T05:06:56;3.13;;;1.80;;
5167;SDS011;2603;48.918;8.980;2023-05-10T05:09:24;3.17;;;1.70;;
5167;SDS011;2603;48.918;8.980;2023-05-10T05:11:50;3.10;;;2.10;;
5167;SDS011;2603;48.918;8.980;2023-05-10T05:14:17;2.73;;;1.97;;
5167;SDS011;2603;48.918;8.980;2023-05-10T05:16:45;3.70;;;1.70;;
5167;SDS011;2603;48.918;8.980;2023-05-10T05:19:12;2.20;;;1.80;;
5167;SDS011;2603;48.918;8.980;2023-05-10T05:21:38;3.67;;;1.40;;
5167;SDS011;2603;48.918;8.980;2023-05-10T05:24:06;2.87;;;1.90;;
5167;SDS011;2603;48.918;8.980;2023-05-10T05:26:34;2.73;;;1.80;;
5167;SDS011;2603;48.918;8.980;2023-05-10T05:29:00;3.20;;;1.83;;
5167;SDS011;2603;48.918;8.980;2023-05-10T05:31:27;2.87;;;1.77;;
5167;SDS011;2603;48.918;8.980;2023-05-10T05:33:54;3.53;;;1.90;;
5167;SDS011;2603;48.918;8.980;2023-05-10T05:36:20;3.47;;;1.63;;
5167;SDS011;2603;48.918;8.980;2023-05-10T05:38:47;2.50;;;1.77;;
5167;SDS011;2603;48.918;8.980;2023-05-10T05:41:14;4.10;;;1.80;;
5167;SDS011;2603;48.918;8.980;2023-05-10T05:43:42;2.30;;;1.47;;
5167;SDS011;2603;48.918;8.980;2023-05-10T05:46:08;2.43;;;1.67;;
5167;SDS011;2603;48.918;8.980;2023-05-10T05:48:35;3.37;;;1.90;;
5167;SDS011;2603;48.918;8.980;2023-05-10T05:51:01;3.30;;;2.27;;
5167;SDS011;2603;48.918;8.980;2023-05-10T05:53:28;4.00;;;1.93;;
5167;SDS011;2603;48.918;8.980;2023-05-10T05:55:55;4.10;;;2.20;;
5167;SDS011;2603;48.918;8.980;2023-05-10T05:58:23;4.33;;;2.27;;
5167;SDS011;2603;48.918;8.980;2023-05-10T06:00:51;2.57;;;1.93;;
5167;SDS011;2603;48.918;8.980;2023-05-10T06:03:18;3.37;;;2.10;;
5167;SDS011;2603;48.918;8.980;2023-05-10T06:05:44;3.03;;;1.70;;
5167;SDS011;2603;48.918;8.980;2023-05-10T06:08:11;3.23;;;1.90;;
5167;SDS011;2603;48.918;8.980;2023-05-10T06:10:38;4.10;;;2.83;;
5167;SDS011;2603;48.918;8.980;2023-05-10T06:13:04;3.80;;;2.10;;
5167;SDS011;2603;48.918;8.980;2023-05-10T06:15:31;3.20;;;2.00;;
5167;SDS011;2603;48.918;8.980;2023-05-10T06:17:59;10.87;;;1.90;;
5167;SDS011;2603;48.918;8.980;2023-05-10T06:20:25;3.03;;;1.43;;
5167;SDS011;2603;48.918;8.980;2023-05-10T06:22:52;4.33;;;1.57;;
5167;SDS011;2603;48.918;8.980;2023-05-10T06:25:18;5.60;;;1.70;;
5167;SDS011;2603;48.918;8.980;2023-05-10T06:27:45;5.93;;;1.27;;
5167;SDS011;2603;48.918;8.980;2023-05-10T06:30:12;2.73;;;1.60;;
5167;SDS011;2603;48.918;8.980;2023-05-10T06:32:40;3.50;;;1.80;;
5167;SDS011;2603;48.918;8.980;2023-05-10T06:35:10;2.30;;;1.30;;
5167;SDS011;2603;48.918;8.980;2023-05-10T06:37:36;1.87;;;1.00;;
5167;SDS011;2603;48.918;8.980;2023-05-10T06:40:03;7.80;;;1.03;;
5167;SDS011;2603;48.918;8.980;2023-05-10T06:42:31;2.40;;;1.17;;
5167;SDS011;2603;48.918;8.980;2023-05-10T06:44:57;4.23;;;1.20;;
5167;SDS011;2603;48.918;8.980;2023-05-10T06:47:24;2.43;;;1.50;;
5167;SDS011;2603;48.918;8.980;2023-05-10T06:49:50;1.83;;;1.17;;
5167;SDS011;2603;48.918;8.980;2023-05-10T06:52:18;1.87;;;1.00;;
5167;SDS011;2603;48.918;8.980;2023-05-10T06:54:45;3.53;;;1.57;;
5167;SDS011;2603;48.918;8.980;2023-05-10T06:57:11;3.37;;;1.00;;
5167;SDS011;2603;48.918;8.980;2023-05-10T06:59:38;2.80;;;1.00;;
5167;SDS011;2603;48.918;8.980;2023-05-10T07:02:05;1.83;;;1.00;;
5167;SDS011;2603;48.918;8.980;2023-05-10T07:04:31;2.77;;;1.00;;
5167;SDS011;2603;48.918;8.980;2023-05-10T07:06:58;2.63;;;0.80;;
5167;SDS011;2603;48.918;8.980;2023-05-10T07:09:26;3.07;;;0.97;;
5167;SDS011;2603;48.918;8.980;2023-05-10T07:11:52;8.53;;;1.47;;
5167;SDS011;2603;48.918;8.980;2023-05-10T07:14:19;4.10;;;0.90;;
5167;SDS011;2603;48.918;8.980;2023-05-10T07:16:45;4.07;;;1.20;;
5167;SDS011;2603;48.918;8.980;2023-05-10T07:19:12;1.70;;;0.70;;
5167;SDS011;2603;48.918;8.980;2023-05-10T07:21:39;1.50;;;0.80;;
5167;SDS011;2603;48.918;8.980;2023-05-10T07:24:08;2.30;;;1.03;;
5167;SDS011;2603;48.918;8.980;2023-05-10T07:26:36;1.13;;;0.60;;
5167;SDS011;2603;48.918;8.980;2023-05-10T07:29:02;6.20;;;0.73;;
5167;SDS011;2603;48.918;8.980;2023-05-10T07:31:29;3.43;;;1.03;;
5167;SDS011;2603;48.918;8.980;2023-05-10T07:33:55;3.90;;;0.87;;
5167;SDS011;2603;48.918;8.980;2023-05-10T07:36:22;1.77;;;0.73;;
5167;SDS011;2603;48.918;8.980;2023-05-10T07:38:49;2.60;;;0.73;;
5167;SDS011;2603;48.918;8.980;2023-05-10T07:41:15;3.10;;;1.23;;
5167;SDS011;2603;48.918;8.980;2023-05-10T07:43:43;7.07;;;1.40;;
5167;SDS011;2603;48.918;8.980;2023-05-10T07:46:10;1.80;;;0.70;;
5167;SDS011;2603;48.918;8.980;2023-05-10T07:48:36;2.17;;;0.60;;
5167;SDS011;2603;48.918;8.980;2023-05-10T07:51:03;1.57;;;0.70;;
5167;SDS011;2603;48.918;8.980;2023-05-10T07:53:31;1.70;;;0.80;;
5167;SDS011;2603;48.918;8.980;2023-05-10T07:55:58;1.50;;;0.80;;
5167;SDS011;2603;48.918;8.980;2023-05-10T07:58:24;1.90;;;0.80;;
5167;SDS011;2603;48.918;8.980;2023-05-10T08:00:53;8.00;;;0.70;;
5167;SDS011;2603;48.918;8.980;2023-05-10T08:03:20;4.93;;;0.70;;
5167;SDS011;2603;48.918;8.980;2023-05-10T08:05:46;6.43;;;0.70;;
5167;SDS011;2603;48.918;8.980;2023-05-10T08:08:13;1.73;;;0.60;;
5167;SDS011;2603;48.918;8.980;2023-05-10T08:10:39;6.70;;;0.57;;
5167;SDS011;2603;48.918;8.980;2023-05-10T08:13:06;1.30;;;0.70;;
5167;SDS011;2603;48.918;8.980;2023-05-10T08:15:32;1.73;;;0.70;;
5167;SDS011;2603;48.918;8.980;2023-05-10T08:18:00;1.20;;;0.63;;
5167;SDS011;2603;48.918;8.980;2023-05-10T08:20:26;4.23;;;0.70;;
5167;SDS011;2603;48.918;8.980;2023-05-10T08:22:53;2.80;;;1.17;;
5167;SDS011;2603;48.918;8.980;2023-05-10T08:25:20;1.50;;;0.80;;
5167;SDS011;2603;48.918;8.980;2023-05-10T08:27:46;2.77;;;1.07;;
5167;SDS011;2603;48.918;8.980;2023-05-10T08:30:13;9.50;;;1.37;;
5167;SDS011;2603;48.918;8.980;2023-05-10T08:32:39;3.60;;;0.50;;
5167;SDS011;2603;48.918;8.980;2023-05-10T08:35:08;1.40;;;0.50;;
5167;SDS011;2603;48.918;8.980;2023-05-10T08:37:34;1.90;;;0.67;;
5167;SDS011;2603;48.918;8.980;2023-05-10T08:40:01;3.30;;;0.70;;
5167;SDS011;2603;48.918;8.980;2023-05-10T08:42:28;1.63;;;0.60;;
5167;SDS011;2603;48.918;8.980;2023-05-10T08:44:57;4.10;;;0.70;;
5167;SDS011;2603;48.918;8.980;2023-05-10T08:47:23;1.80;;;0.67;;
5167;SDS011;2603;48.918;8.980;2023-05-10T08:49:52;0.97;;;0.40;;
5167;SDS011;2603;48.918;8.980;2023-05-10T08:52:20;1.47;;;0.57;;
5167;SDS011;2603;48.918;8.980;2023-05-10T08:54:47;2.60;;;0.70;;
5167;SDS011;2603;48.918;8.980;2023-05-10T08:57:14;1.87;;;0.70;;
5167;SDS011;2603;48.918;8.980;2023-05-10T08:59:41;1.23;;;0.60;;
5167;SDS011;2603;48.918;8.980;2023-05-10T09:02:07;1.30;;;0.50;;
5167;SDS011;2603;48.918;8.980;2023-05-10T09:04:36;1.90;;;0.70;;
5167;SDS011;2603;48.918;8.980;2023-05-10T09:07:02;6.60;;;0.70;;
5167;SDS011;2603;48.918;8.980;2023-05-10T09:09:30;1.53;;;0.70;;
5167;SDS011;2603;48.918;8.980;2023-05-10T09:11:57;1.40;;;0.70;;
5167;SDS011;2603;48.918;8.980;2023-05-10T09:14:24;4.03;;;0.60;;
5167;SDS011;2603;48.918;8.980;2023-05-10T09:16:51;1.40;;;0.60;;
5167;SDS011;2603;48.918;8.980;2023-05-10T09:19:18;1.50;;;0.63;;
5167;SDS011;2603;48.918;8.980;2023-05-10T09:21:45;1.30;;;0.53;;
5167;SDS011;2603;48.918;8.980;2023-05-10T09:24:11;1.90;;;0.87;;
5167;SDS011;2603;48.918;8.980;2023-05-10T09:26:46;4.63;;;0.60;;
5167;SDS011;2603;48.918;8.980;2023-05-10T09:29:14;1.40;;;0.60;;
5167;SDS011;2603;48.918;8.980;2023-05-10T09:31:44;1.00;;;0.40;;
5167;SDS011;2603;48.918;8.980;2023-05-10T09:34:15;1.40;;;0.50;;
5167;SDS011;2603;48.918;8.980;2023-05-10T09:36:50;1.17;;;0.50;;
5167;SDS011;2603;48.918;8.980;2023-05-10T09:39:20;2.17;;;0.70;;
5167;SDS011;2603;48.918;8.980;2023-05-10T09:41:48;4.50;;;0.73;;
5167;SDS011;2603;48.918;8.980;2023-05-10T09:44:16;1.37;;;0.60;;
5167;SDS011;2603;48.918;8.980;2023-05-10T09:46:48;1.93;;;0.70;;
5167;SDS011;2603;48.918;8.980;2023-05-10T09:49:15;1.53;;;0.50;;
5167;SDS011;2603;48.918;8.980;2023-05-10T09:51:41;1.20;;;0.60;;
5167;SDS011;2603;48.918;8.980;2023-05-10T09:54:09;1.63;;;0.60;;
5167;SDS011;2603;48.918;8.980;2023-05-10T09:56:36;2.03;;;0.70;;
5167;SDS011;2603;48.918;8.980;2023-05-10T09:59:07;1.50;;;0.60;;
5167;SDS011;2603;48.918;8.980;2023-05-10T10:01:34;1.47;;;0.50;;
5167;SDS011;2603;48.918;8.980;2023-05-10T10:04:02;2.07;;;0.60;;
5167;SDS011;2603;48.918;8.980;2023-05-10T10:06:29;3.10;;;0.83;;
5167;SDS011;2603;48.918;8.980;2023-05-10T10:09:01;2.00;;;0.77;;
5167;SDS011;2603;48.918;8.980;2023-05-10T10:11:28;1.33;;;0.70;;
5167;SDS011;2603;48.918;8.980;2023-05-10T10:13:54;1.70;;;0.63;;
5167;SDS011;2603;48.918;8.980;2023-05-10T10:16:22;3.20;;;0.73;;
5167;SDS011;2603;48.918;8.980;2023-05-10T10:18:49;1.47;;;0.60;;
5167;SDS011;2603;48.918;8.980;2023-05-10T10:21:16;1.60;;;0.70;;
5167;SDS011;2603;48.918;8.980;2023-05-10T10:23:43;3.37;;;0.90;;
5167;SDS011;2603;48.918;8.980;2023-05-10T10:26:09;4.30;;;2.67;;
5167;SDS011;2603;48.918;8.980;2023-05-10T10:28:39;1.40;;;0.60;;
5167;SDS011;2603;48.918;8.980;2023-05-10T10:31:15;1.67;;;0.70;;
5167;SDS011;2603;48.918;8.980;2023-05-10T10:36:33;5.73;;;0.53;;
5167;SDS011;2603;48.918;8.980;2023-05-10T10:39:08;1.23;;;0.50;;
5167;SDS011;2603;48.918;8.980;2023-05-10T10:41:37;1.20;;;0.60;;
5167;SDS011;2603;48.918;8.980;2023-05-10T10:46:59;1.87;;;0.73;;
5167;SDS011;2603;48.918;8.980;2023-05-10T10:49:51;1.23;;;0.60;;
5167;SDS011;2603;48.918;8.980;2023-05-10T10:52:23;10.83;;;0.93;;
5167;SDS011;2603;48.918;8.980;2023-05-10T10:54:53;3.40;;;0.83;;
5167;SDS011;2603;48.918;8.980;2023-05-10T10:57:24;1.27;;;0.63;;
5167;SDS011;2603;48.918;8.980;2023-05-10T10:59:53;3.10;;;0.67;;
5167;SDS011;2603;48.918;8.980;2023-05-10T11:02:42;1.30;;;0.80;;
5167;SDS011;2603;48.918;8.980;2023-05-10T11:05:34;3.10;;;0.87;;
5167;SDS011;2603;48.918;8.980;2023-05-10T11:08:09;4.43;;;1.00;;
5167;SDS011;2603;48.918;8.980;2023-05-10T11:10:37;4.07;;;0.80;;
5167;SDS011;2603;48.918;8.980;2023-05-10T11:13:05;2.60;;;0.80;;
5167;SDS011;2603;48.918;8.980;2023-05-10T11:15:33;1.53;;;0.73;;
5167;SDS011;2603;48.918;8.980;2023-05-10T11:18:16;2.93;;;0.90;;
5167;SDS011;2603;48.918;8.980;2023-05-10T11:20:44;3.53;;;1.57;;
5167;SDS011;2603;48.918;8.980;2023-05-10T11:23:16;2.00;;;0.80;;
5167;SDS011;2603;48.918;8.980;2023-05-10T11:25:43;1.50;;;0.83;;
5167;SDS011;2603;48.918;8.980;2023-05-10T11:28:10;2.90;;;1.13;;
5167;SDS011;2603;48.918;8.980;2023-05-10T11:30:37;2.10;;;1.10;;
5167;SDS011;2603;48.918;8.980;2023-05-10T11:33:04;1.30;;;0.70;;
5167;SDS011;2603;48.918;8.980;2023-05-10T11:35:31;2.30;;;0.80;;
5167;SDS011;2603;48.918;8.980;2023-05-10T11:38:06;2.03;;;0.63;;
5167;SDS011;2603;48.918;8.980;2023-05-10T11:40:33;3.00;;;1.23;;
5167;SDS011;2603;48.918;8.980;2023-05-10T11:42:59;2.57;;;0.93;;
5167;SDS011;2603;48.918;8.980;2023-05-10T11:45:26;3.70;;;0.80;;
5167;SDS011;2603;48.918;8.980;2023-05-10T11:47:54;3.33;;;1.20;;
5167;SDS011;2603;48.918;8.980;2023-05-10T11:50:20;1.90;;;1.20;;
5167;SDS011;2603;48.918;8.980;2023-05-10T11:52:50;1.97;;;0.73;;
5167;SDS011;2603;48.918;8.980;2023-05-10T11:55:18;4.23;;;1.20;;
5167;SDS011;2603;48.918;8.980;2023-05-10T11:57:45;4.50;;;1.00;;
5167;SDS011;2603;48.918;8.980;2023-05-10T12:00:12;2.97;;;1.00;;
5167;SDS011;2603;48.918;8.980;2023-05-10T12:02:41;4.70;;;1.10;;
5167;SDS011;2603;48.918;8.980;2023-05-10T12:05:08;7.30;;;1.27;;
5167;SDS011;2603;48.918;8.980;2023-05-10T12:07:35;3.47;;;1.20;;
5167;SDS011;2603;48.918;8.980;2023-05-10T12:10:02;2.60;;;0.90;;
5167;SDS011;2603;48.918;8.980;2023-05-10T12:12:40;2.30;;;0.90;;
5167;SDS011;2603;48.918;8.980;2023-05-10T12:15:11;1.93;;;0.70;;
5167;SDS011;2603;48.918;8.980;2023-05-10T12:17:38;2.10;;;0.80;;
5167;SDS011;2603;48.918;8.980;2023-05-10T12:20:15;2.80;;;0.80;;
5167;SDS011;2603;48.918;8.980;2023-05-10T12:22:46;1.73;;;0.70;;
5167;SDS011;2603;48.918;8.980;2023-05-10T12:25:13;3.30;;;0.90;;
5167;SDS011;2603;48.918;8.980;2023-05-10T12:27:41;5.03;;;0.73;;
5167;SDS011;2603;48.918;8.980;2023-05-10T12:30:18;1.63;;;0.63;;
5167;SDS011;2603;48.918;8.980;2023-05-10T12:32:45;1.53;;;0.70;;
5167;SDS011;2603;48.918;8.980;2023-05-10T12:35:11;4.53;;;1.00;;
5167;SDS011;2603;48.918;8.980;2023-05-10T12:37:38;1.80;;;0.70;;
5167;SDS011;2603;48.918;8.980;2023-05-10T12:40:05;8.77;;;1.17;;
5167;SDS011;2603;48.918;8.980;2023-05-10T12:42:34;1.97;;;0.87;;
5167;SDS011;2603;48.918;8.980;2023-05-10T12:45:02;2.03;;;0.90;;
5167;SDS011;2603;48.918;8.980;2023-05-10T12:47:30;3.07;;;0.80;;
5167;SDS011;2603;48.918;8.980;2023-05-10T12:49:57;2.23;;;0.70;;
5167;SDS011;2603;48.918;8.980;2023-05-10T12:52:24;6.97;;;0.80;;
5167;SDS011;2603;48.918;8.980;2023-05-10T12:54:51;2.83;;;0.97;;
5167;SDS011;2603;48.918;8.980;2023-05-10T12:57:20;2.87;;;1.10;;
5167;SDS011;2603;48.918;8.980;2023-05-10T12:59:46;4.67;;;0.90;;
5167;SDS011;2603;48.918;8.980;2023-05-10T13:02:14;1.80;;;0.83;;
5167;SDS011;2603;48.918;8.980;2023-05-10T13:04:43;1.83;;;0.70;;
5167;SDS011;2603;48.918;8.980;2023-05-10T13:07:09;6.00;;;1.03;;
5167;SDS011;2603;48.918;8.980;2023-05-10T13:09:36;2.03;;;1.00;;
5167;SDS011;2603;48.918;8.980;2023-05-10T13:12:03;2.03;;;0.80;;
5167;SDS011;2603;48.918;8.980;2023-05-10T13:14:30;4.90;;;0.70;;
5167;SDS011;2603;48.918;8.980;2023-05-10T13:16:58;8.93;;;0.90;;
5167;SDS011;2603;48.918;8.980;2023-05-10T13:19:26;5.10;;;0.80;;
5167;SDS011;2603;48.918;8.980;2023-05-10T13:21:53;1.60;;;0.70;;
5167;SDS011;2603;48.918;8.980;2023-05-10T13:24:19;3.00;;;0.70;;
5167;SDS011;2603;48.918;8.980;2023-05-10T13:26:46;5.03;;;0.80;;
5167;SDS011;2603;48.918;8.980;2023-05-10T13:29:13;5.03;;;0.80;;
5167;SDS011;2603;48.918;8.980;2023-05-10T13:31:42;1.30;;;0.60;;
5167;SDS011;2603;48.918;8.980;2023-05-10T13:34:08;2.53;;;0.90;;
5167;SDS011;2603;48.918;8.980;2023-05-10T13:36:36;2.77;;;0.97;;
5167;SDS011;2603;48.918;8.980;2023-05-10T13:39:03;3.10;;;0.90;;
5167;SDS011;2603;48.918;8.980;2023-05-10T13:41:30;3.90;;;0.70;;
5167;SDS011;2603;48.918;8.980;2023-05-10T13:43:56;3.00;;;0.87;;
5167;SDS011;2603;48.918;8.980;2023-05-10T13:46:23;3.30;;;1.20;;
5167;SDS011;2603;48.918;8.980;2023-05-10T13:48:50;2.83;;;1.20;;
5167;SDS011;2603;48.918;8.980;2023-05-10T13:51:20;1.97;;;0.60;;
5167;SDS011;2603;48.918;8.980;2023-05-10T13:53:48;1.93;;;0.87;;
5167;SDS011;2603;48.918;8.980;2023-05-10T13:56:14;1.73;;;0.77;;
5167;SDS011;2603;48.918;8.980;2023-05-10T13:58:41;1.20;;;0.60;;
5167;SDS011;2603;48.918;8.980;2023-05-10T14:01:08;1.97;;;1.00;;
5167;SDS011;2603;48.918;8.980;2023-05-10T14:03:35;2.00;;;0.70;;
5167;SDS011;2603;48.918;8.980;2023-05-10T14:06:02;2.83;;;0.80;;
5167;SDS011;2603;48.918;8.980;2023-05-10T14:08:28;2.67;;;1.00;;
5167;SDS011;2603;48.918;8.980;2023-05-10T14:10:56;1.33;;;0.70;;
5167;SDS011;2603;48.918;8.980;2023-05-10T14:13:23;4.03;;;1.93;;
5167;SDS011;2603;48.918;8.980;2023-05-10T14:15:50;1.57;;;0.60;;
5167;SDS011;2603;48.918;8.980;2023-05-10T14:18:16;2.20;;;0.70;;
5167;SDS011;2603;48.918;8.980;2023-05-10T14:20:43;1.80;;;0.57;;
5167;SDS011;2603;48.918;8.980;2023-05-10T14:23:09;3.20;;;0.87;;
5167;SDS011;2603;48.918;8.980;2023-05-10T14:25:37;1.70;;;0.80;;
5167;SDS011;2603;48.918;8.980;2023-05-10T14:28:08;4.83;;;1.10;;
5167;SDS011;2603;48.918;8.980;2023-05-10T14:30:37;1.53;;;0.70;;
5167;SDS011;2603;48.918;8.980;2023-05-10T14:33:04;1.40;;;0.80;;
5167;SDS011;2603;48.918;8.980;2023-05-10T14:35:30;2.63;;;0.60;;
5167;SDS011;2603;48.918;8.980;2023-05-10T14:37:57;1.30;;;0.60;;
5167;SDS011;2603;48.918;8.980;2023-05-10T14:40:24;3.67;;;0.60;;
5167;SDS011;2603;48.918;8.980;2023-05-10T14:42:51;1.97;;;1.03;;
5167;SDS011;2603;48.918;8.980;2023-05-10T14:45:19;2.33;;;0.63;;
5167;SDS011;2603;48.918;8.980;2023-05-10T14:47:48;1.70;;;0.60;;
5167;SDS011;2603;48.918;8.980;2023-05-10T14:50:15;1.33;;;0.70;;
5167;SDS011;2603;48.918;8.980;2023-05-10T14:52:43;1.37;;;0.50;;
5167;SDS011;2603;48.918;8.980;2023-05-10T14:55:09;2.33;;;0.57;;
5167;SDS011;2603;48.918;8.980;2023-05-10T14:57:37;4.90;;;0.90;;
5167;SDS011;2603;48.918;8.980;2023-05-10T15:00:03;1.80;;;0.50;;
5167;SDS011;2603;48.918;8.980;2023-05-10T15:02:33;4.50;;;0.80;;
5167;SDS011;2603;48.918;8.980;2023-05-10T15:05:03;3.83;;;1.07;;
5167;SDS011;2603;48.918;8.980;2023-05-10T15:07:31;2.50;;;0.70;;
5167;SDS011;2603;48.918;8.980;2023-05-10T15:09:57;1.90;;;0.67;;
5167;SDS011;2603;48.918;8.980;2023-05-10T15:12:24;6.10;;;0.80;;
5167;SDS011;2603;48.918;8.980;2023-05-10T15:14:51;1.90;;;0.57;;
5167;SDS011;2603;48.918;8.980;2023-05-10T15:17:18;1.50;;;0.60;;
5167;SDS011;2603;48.918;8.980;2023-05-10T15:19:46;4.70;;;1.07;;
5167;SDS011;2603;48.918;8.980;2023-05-10T15:22:14;2.80;;;0.77;;
5167;SDS011;2603;48.918;8.980;2023-05-10T15:24:40;1.50;;;0.60;;
5167;SDS011;2603;48.918;8.980;2023-05-10T15:27:07;1.23;;;0.50;;
5167;SDS011;2603;48.918;8.980;2023-05-10T15:29:33;5.17;;;0.87;;
5167;SDS011;2603;48.918;8.980;2023-05-10T15:32:01;1.27;;;0.50;;